createdAt,value
2022-09-10T00:01:35.241Z,45.67
2022-09-10T00:04:07.439Z,45.73
2022-09-10T00:06:38.566Z,45.64
2022-09-10T00:09:06.754Z,45.78
2022-09-10T00:11:35.223Z,45.86
2022-09-10T00:14:04.613Z,45.90
2022-09-10T00:16:32.561Z,45.95
2022-09-10T00:19:01.745Z,45.76
2022-09-10T00:21:30.029Z,45.89
2022-09-10T00:23:57.812Z,45.85
2022-09-10T00:26:27.801Z,45.94
2022-09-10T00:28:57.085Z,45.82
2022-09-10T00:31:24.502Z,45.83
2022-09-10T00:33:52.597Z,45.57
2022-09-10T00:36:27.133Z,45.86
2022-09-10T00:38:57.734Z,45.84
2022-09-10T00:41:26.189Z,46.04
2022-09-10T00:44:02.539Z,46.24
2022-09-10T00:46:36.905Z,46.16
2022-09-10T00:49:15.320Z,45.85
2022-09-10T00:51:45.149Z,46.16
2022-09-10T00:54:14.159Z,46.47
2022-09-10T00:56:43.090Z,46.33
2022-09-10T00:59:14.558Z,46.57
2022-09-10T01:01:42.509Z,46.35
2022-09-10T01:04:10.663Z,46.33
2022-09-10T01:06:40.877Z,46.16
2022-09-10T01:09:09.532Z,46.38
2022-09-10T01:12:08.957Z,46.30
2022-09-10T01:14:39.337Z,46.54
2022-09-10T01:17:25.981Z,46.76
2022-09-10T01:20:26.273Z,46.55
2022-09-10T01:23:17.021Z,46.79
2022-09-10T01:25:48.436Z,46.68
2022-09-10T01:28:25.232Z,46.79
2022-09-10T01:31:01.437Z,46.80
2022-09-10T01:33:41.781Z,46.92
2022-09-10T01:36:22.087Z,46.93
2022-09-10T01:38:51.552Z,46.96
2022-09-10T01:41:23.281Z,46.90
2022-09-10T01:43:50.636Z,46.69
2022-09-10T01:46:54.944Z,46.88
2022-09-10T01:50:01.468Z,46.88
2022-09-10T01:52:38.105Z,46.67
2022-09-10T01:55:22.438Z,46.99
2022-09-10T01:57:59.563Z,47.02
2022-09-10T02:00:28.000Z,47.16
2022-09-10T02:03:24.705Z,46.92
2022-09-10T02:05:54.426Z,47.24
2022-09-10T02:08:32.630Z,47.27
2022-09-10T02:11:09.176Z,47.16
2022-09-10T02:13:36.866Z,47.34
2022-09-10T02:16:11.205Z,47.36
2022-09-10T02:18:40.096Z,47.39
2022-09-10T02:21:09.277Z,46.99
2022-09-10T02:23:42.201Z,47.15
2022-09-10T02:26:11.246Z,46.93
2022-09-10T02:28:38.809Z,47.04
2022-09-10T02:31:06.227Z,46.88
2022-09-10T02:33:34.055Z,47.03
2022-09-10T02:36:02.155Z,46.87
2022-09-10T02:38:30.099Z,46.70
2022-09-10T02:40:59.202Z,46.74
2022-09-10T02:43:28.292Z,46.69
2022-09-10T02:45:57.308Z,46.99
2022-09-10T02:48:26.157Z,46.75
2022-09-10T02:50:54.841Z,46.87
2022-09-10T02:53:22.181Z,46.86
2022-09-10T02:55:49.738Z,46.95
2022-09-10T02:58:17.737Z,46.65
2022-09-10T03:00:45.680Z,46.69
2022-09-10T03:03:14.298Z,46.71
2022-09-10T03:05:41.647Z,46.86
2022-09-10T03:08:09.856Z,46.56
2022-09-10T03:10:39.468Z,46.75
2022-09-10T03:13:06.849Z,46.71
2022-09-10T03:15:34.356Z,46.69
2022-09-10T03:18:01.970Z,46.81
2022-09-10T03:20:29.342Z,46.93
2022-09-10T03:22:57.176Z,47.18
2022-09-10T03:25:25.574Z,47.05
2022-09-10T03:27:52.913Z,46.95
2022-09-10T03:30:21.166Z,47.18
2022-09-10T03:32:49.141Z,47.12
2022-09-10T03:35:16.835Z,47.12
2022-09-10T03:37:44.318Z,47.27
2022-09-10T03:40:11.916Z,47.38
2022-09-10T03:42:39.339Z,47.15
2022-09-10T03:45:07.414Z,47.38
2022-09-10T03:47:37.725Z,47.39
2022-09-10T03:50:05.622Z,47.36
2022-09-10T03:52:33.526Z,47.34
2022-09-10T03:55:01.015Z,47.04
2022-09-10T03:57:28.464Z,47.20
2022-09-10T03:59:56.665Z,47.28
2022-09-10T04:02:24.363Z,47.29
2022-09-10T04:04:52.025Z,47.32
2022-09-10T04:07:19.391Z,47.13
2022-09-10T04:09:47.058Z,47.14
2022-09-10T04:12:14.522Z,47.02
2022-09-10T04:14:45.320Z,47.11
2022-09-10T04:17:13.383Z,47.10
2022-09-10T04:19:40.727Z,47.01
2022-09-10T04:22:08.086Z,46.98
2022-09-10T04:24:35.569Z,46.75
2022-09-10T04:27:02.968Z,46.92
2022-09-10T04:29:31.410Z,46.83
2022-09-10T04:31:58.906Z,46.85
2022-09-10T04:34:26.227Z,47.06
2022-09-10T04:36:53.630Z,46.78
2022-09-10T04:39:21.185Z,47.08
2022-09-10T04:41:48.484Z,46.74
2022-09-10T04:44:20.097Z,46.74
2022-09-10T04:46:47.936Z,46.92
2022-09-10T04:49:15.274Z,46.88
2022-09-10T04:51:42.707Z,46.93
2022-09-10T04:54:13.487Z,46.94
2022-09-10T04:56:41.141Z,46.89
2022-09-10T04:59:10.784Z,46.92
2022-09-10T05:01:38.380Z,46.99
2022-09-10T05:04:05.735Z,47.18
2022-09-10T05:06:34.337Z,46.89
2022-09-10T05:09:02.017Z,47.16
2022-09-10T05:11:29.413Z,46.97
2022-09-10T05:13:56.737Z,47.07
2022-09-10T05:16:24.690Z,47.04
2022-09-10T05:18:53.215Z,46.96
2022-09-10T05:21:20.542Z,46.86
2022-09-10T05:23:48.103Z,47.08
2022-09-10T05:26:15.475Z,47.19
2022-09-10T05:28:42.838Z,47.08
2022-09-10T05:31:10.385Z,46.99
2022-09-10T05:33:40.716Z,46.98
2022-09-10T05:36:11.583Z,47.12
2022-09-10T05:38:40.114Z,46.94
2022-09-10T05:41:11.238Z,47.11
2022-09-10T05:43:40.257Z,47.15
2022-09-10T05:46:08.309Z,47.00
2022-09-10T05:48:39.626Z,46.82
2022-09-10T05:51:09.335Z,46.84
2022-09-10T05:53:38.185Z,46.88
2022-09-10T05:56:06.503Z,47.04
2022-09-10T05:58:34.621Z,46.83
2022-09-10T06:01:02.008Z,46.82
2022-09-10T06:03:29.469Z,46.80
2022-09-10T06:05:56.929Z,47.00
2022-09-10T06:08:24.405Z,46.86
2022-09-10T06:11:00.299Z,46.91
2022-09-10T06:13:27.889Z,47.07
2022-09-10T06:15:55.613Z,46.83
2022-09-10T06:18:23.156Z,47.14
2022-09-10T06:21:01.065Z,47.00
2022-09-10T06:23:28.473Z,46.71
2022-09-10T06:26:01.892Z,46.93
2022-09-10T06:28:29.293Z,47.19
2022-09-10T06:30:57.095Z,47.10
2022-09-10T06:33:24.778Z,47.22
2022-09-10T06:35:56.825Z,47.15
2022-09-10T06:38:25.354Z,47.05
2022-09-10T06:40:59.183Z,46.89
2022-09-10T06:43:27.871Z,46.99
2022-09-10T06:45:55.959Z,47.10
2022-09-10T06:48:48.474Z,47.14
2022-09-10T06:51:16.558Z,46.92
2022-09-10T06:53:46.528Z,46.97
2022-09-10T06:56:15.141Z,47.20
2022-09-10T06:58:42.754Z,47.29
2022-09-10T07:01:13.782Z,47.14
2022-09-10T07:03:43.445Z,47.20
2022-09-10T07:06:13.965Z,47.01
2022-09-10T07:08:42.200Z,47.44
2022-09-10T07:11:14.586Z,47.54
2022-09-10T07:13:45.733Z,47.68
2022-09-10T07:16:17.240Z,47.49
2022-09-10T07:18:48.157Z,47.36
2022-09-10T07:21:16.331Z,47.15
2022-09-10T07:23:44.377Z,47.19
2022-09-10T07:26:13.972Z,47.50
2022-09-10T07:28:42.816Z,47.69
2022-09-10T07:31:16.602Z,47.55
2022-09-10T07:33:45.292Z,47.68
2022-09-10T07:36:13.078Z,47.68
2022-09-10T07:38:42.055Z,47.69
2022-09-10T07:41:11.952Z,47.84
2022-09-10T07:43:43.751Z,47.66
2022-09-10T07:46:19.469Z,47.43
2022-09-10T07:48:58.053Z,47.46
2022-09-10T07:51:27.704Z,47.67
2022-09-10T07:53:57.211Z,47.46
2022-09-10T07:56:25.862Z,47.28
2022-09-10T07:58:54.068Z,47.71
2022-09-10T08:01:21.558Z,47.60
2022-09-10T08:03:49.351Z,47.74
2022-09-10T08:06:17.119Z,47.86
2022-09-10T08:08:44.656Z,47.90
2022-09-10T08:11:17.966Z,47.71
2022-09-10T08:13:49.005Z,47.71
2022-09-10T08:16:24.344Z,47.97
2022-09-10T08:18:52.144Z,48.23
2022-09-10T08:21:19.945Z,48.08
2022-09-10T08:23:54.070Z,48.03
2022-09-10T08:26:24.280Z,47.71
2022-09-10T08:28:53.464Z,47.55
2022-09-10T08:31:22.734Z,47.55
2022-09-10T08:33:52.083Z,47.89
2022-09-10T08:36:21.794Z,47.80
2022-09-10T08:38:50.407Z,47.78
2022-09-10T08:41:26.708Z,47.60
2022-09-10T08:44:03.273Z,47.86
2022-09-10T08:46:45.345Z,48.23
2022-09-10T08:49:54.475Z,47.70
2022-09-10T08:52:40.765Z,47.81
2022-09-10T08:55:17.153Z,48.02
2022-09-10T08:58:20.868Z,47.71
2022-09-10T09:00:55.862Z,47.78
2022-09-10T09:03:28.534Z,47.21
2022-09-10T09:06:04.103Z,47.79
2022-09-10T09:08:41.009Z,48.12
2022-09-10T09:11:52.711Z,47.74
2022-09-10T09:15:03.838Z,47.78
2022-09-10T09:18:06.597Z,47.67
2022-09-10T09:20:51.545Z,48.01
2022-09-10T09:23:33.115Z,48.22
2022-09-10T09:26:20.952Z,48.14
2022-09-10T09:29:11.290Z,47.92
2022-09-10T09:31:43.267Z,49.65
2022-09-10T09:34:22.657Z,52.62
2022-09-10T09:36:53.824Z,55.67
2022-09-10T09:39:25.591Z,56.53
2022-09-10T09:42:15.761Z,55.13
2022-09-10T09:44:57.290Z,52.68
2022-09-10T09:47:24.722Z,51.68
2022-09-10T09:49:53.939Z,51.34
2022-09-10T09:52:23.146Z,52.95
2022-09-10T09:55:15.947Z,52.63
2022-09-10T09:57:44.893Z,51.64
2022-09-10T10:00:36.026Z,51.10
2022-09-10T10:03:18.245Z,51.68
2022-09-10T10:05:47.293Z,52.88
2022-09-10T10:08:31.493Z,56.00
2022-09-10T10:10:59.266Z,51.88
2022-09-10T10:13:39.825Z,51.86
2022-09-10T10:16:20.959Z,52.40
2022-09-10T10:18:49.646Z,52.39
2022-09-10T10:21:23.371Z,53.62
2022-09-10T10:23:50.881Z,53.44
2022-09-10T10:26:20.954Z,52.48
2022-09-10T10:28:59.762Z,51.77
2022-09-10T10:31:38.727Z,53.09
2022-09-10T10:34:15.014Z,52.45
2022-09-10T10:37:20.159Z,53.57
2022-09-10T10:40:24.554Z,51.79
2022-09-10T10:43:04.128Z,51.03
2022-09-10T10:45:38.337Z,51.94
2022-09-10T10:48:17.522Z,52.07
2022-09-10T10:51:15.011Z,51.64
2022-09-10T10:53:51.681Z,53.44
2022-09-10T10:56:42.571Z,53.56
2022-09-10T10:59:44.706Z,51.45
2022-09-10T11:02:21.417Z,51.16
2022-09-10T11:04:55.152Z,52.04
2022-09-10T11:07:29.676Z,51.51
2022-09-10T11:10:03.728Z,51.46
2022-09-10T11:12:39.915Z,51.29
2022-09-10T11:15:19.868Z,52.66
2022-09-10T11:18:17.099Z,52.59
2022-09-10T11:20:56.190Z,52.27
2022-09-10T11:23:41.783Z,51.98
2022-09-10T11:26:21.897Z,51.22
2022-09-10T11:29:16.900Z,51.67
2022-09-10T11:31:53.872Z,51.59
2022-09-10T11:34:32.873Z,51.37
2022-09-10T11:37:35.942Z,50.96
2022-09-10T11:40:13.493Z,50.12
2022-09-10T11:42:46.737Z,49.40
2022-09-10T11:45:23.535Z,49.82
2022-09-10T11:48:00.361Z,49.11
2022-09-10T11:50:34.843Z,49.52
2022-09-10T11:53:07.362Z,49.46
2022-09-10T11:55:50.535Z,49.65
2022-09-10T11:58:32.630Z,50.26
2022-09-10T12:01:13.362Z,50.18
2022-09-10T12:03:56.195Z,51.83
2022-09-10T12:06:47.083Z,49.55
2022-09-10T12:09:26.337Z,48.98
2022-09-10T12:12:09.350Z,48.81
2022-09-10T12:14:39.569Z,48.84
2022-09-10T12:17:23.480Z,49.23
2022-09-10T12:19:57.488Z,48.33
2022-09-10T12:22:36.945Z,48.69
2022-09-10T12:25:22.878Z,49.97
2022-09-10T12:27:56.744Z,47.74
2022-09-10T12:30:27.549Z,47.88
2022-09-10T12:32:59.145Z,48.32
2022-09-10T12:35:30.342Z,48.18
2022-09-10T12:38:36.724Z,48.67
2022-09-10T12:41:08.815Z,49.40
2022-09-10T12:43:39.076Z,48.28
2022-09-10T12:46:06.900Z,48.42
2022-09-10T12:48:36.997Z,47.94
2022-09-10T12:51:18.955Z,48.19
2022-09-10T12:54:04.660Z,47.87
2022-09-10T12:56:57.946Z,47.59
2022-09-10T12:59:51.219Z,46.89
2022-09-10T13:02:30.036Z,47.35
2022-09-10T13:05:06.196Z,46.68
2022-09-10T13:07:40.204Z,46.95
2022-09-10T13:10:29.017Z,47.50
2022-09-10T13:13:01.219Z,47.58
2022-09-10T13:15:35.439Z,47.67
2022-09-10T13:18:09.030Z,47.33
2022-09-10T13:20:38.890Z,47.32
2022-09-10T13:23:09.226Z,47.12
2022-09-10T13:25:41.527Z,46.75
2022-09-10T13:28:43.060Z,46.41
2022-09-10T13:31:17.061Z,46.89
2022-09-10T13:33:52.023Z,46.64
2022-09-10T13:36:43.723Z,46.85
2022-09-10T13:39:46.170Z,46.61
2022-09-10T13:42:32.379Z,46.72
2022-09-10T13:45:24.088Z,46.80
2022-09-10T13:47:58.808Z,46.51
2022-09-10T13:50:31.079Z,46.50
2022-09-10T13:53:03.466Z,45.68
2022-09-10T13:55:32.097Z,46.41
2022-09-10T13:58:15.470Z,45.84
2022-09-10T14:00:54.788Z,45.95
2022-09-10T14:03:35.066Z,45.86
2022-09-10T14:06:18.719Z,45.81
2022-09-10T14:09:04.593Z,45.30
2022-09-10T14:11:37.953Z,44.14
2022-09-10T14:14:11.186Z,44.86
2022-09-10T14:16:48.501Z,45.07
2022-09-10T14:19:49.239Z,44.95
2022-09-10T14:22:22.193Z,44.72
2022-09-10T14:24:53.579Z,44.81
2022-09-10T14:27:37.273Z,44.46
2022-09-10T14:30:23.331Z,44.21
2022-09-10T14:32:52.168Z,44.16
2022-09-10T14:35:36.333Z,43.95
2022-09-10T14:38:36.611Z,43.38
2022-09-10T14:41:11.047Z,43.64
2022-09-10T14:43:40.484Z,43.84
2022-09-10T14:46:12.347Z,44.15
2022-09-10T14:49:07.821Z,44.03
2022-09-10T14:51:35.159Z,44.22
2022-09-10T14:54:03.527Z,44.04
2022-09-10T14:56:38.612Z,44.19
2022-09-10T14:59:16.089Z,43.72
2022-09-10T15:01:48.582Z,44.09
2022-09-10T15:04:19.109Z,43.69
2022-09-10T15:06:46.578Z,44.27
2022-09-10T15:09:14.946Z,43.95
2022-09-10T15:11:55.720Z,43.86
2022-09-10T15:14:23.160Z,44.15
2022-09-10T15:16:52.203Z,44.38
2022-09-10T15:19:21.994Z,44.32
2022-09-10T15:21:50.386Z,44.75
2022-09-10T15:24:20.921Z,44.57
2022-09-10T15:26:49.581Z,44.92
2022-09-10T15:29:17.856Z,44.87
2022-09-10T15:31:45.460Z,45.11
2022-09-10T15:34:12.966Z,44.86
2022-09-10T15:36:42.363Z,45.05
2022-09-10T15:39:12.490Z,44.76
2022-09-10T15:41:44.298Z,45.08
2022-09-10T15:44:12.076Z,44.64
2022-09-10T15:46:45.311Z,44.77
2022-09-10T15:49:13.001Z,44.92
2022-09-10T15:51:41.300Z,44.66
2022-09-10T15:54:10.548Z,44.89
2022-09-10T15:56:39.522Z,44.64
2022-09-10T15:59:08.551Z,45.00
2022-09-10T16:01:38.319Z,45.15
2022-09-10T16:04:07.634Z,45.32
2022-09-10T16:06:37.814Z,45.08
2022-09-10T16:09:11.334Z,45.19
2022-09-10T16:11:41.057Z,45.08
2022-09-10T16:14:12.098Z,45.17
2022-09-10T16:16:40.955Z,44.79
2022-09-10T16:19:10.554Z,44.73
2022-09-10T16:21:39.281Z,44.74
2022-09-10T16:24:07.683Z,44.40
2022-09-10T16:26:38.361Z,44.25
2022-09-10T16:29:12.204Z,44.51
2022-09-10T16:31:40.373Z,44.03
2022-09-10T16:34:11.489Z,44.03
2022-09-10T16:36:40.004Z,44.00
2022-09-10T16:39:14.037Z,43.94
2022-09-10T16:41:44.125Z,44.33
2022-09-10T16:44:12.882Z,44.33
2022-09-10T16:46:41.075Z,44.42
2022-09-10T16:49:13.872Z,44.57
2022-09-10T16:51:42.871Z,44.72
2022-09-10T16:54:11.131Z,44.98
2022-09-10T16:56:39.946Z,45.04
2022-09-10T16:59:15.130Z,44.81
2022-09-10T17:01:44.516Z,44.67
2022-09-10T17:04:21.321Z,44.91
2022-09-10T17:06:51.126Z,44.91
2022-09-10T17:09:19.183Z,45.04
2022-09-10T17:11:47.295Z,45.35
2022-09-10T17:14:14.711Z,45.55
2022-09-10T17:16:43.720Z,45.48
2022-09-10T17:19:14.185Z,45.54
2022-09-10T17:21:48.732Z,45.57
2022-09-10T17:24:18.866Z,45.69
2022-09-10T17:26:46.615Z,45.67
2022-09-10T17:29:16.428Z,45.91
2022-09-10T17:31:48.960Z,45.96
2022-09-10T17:34:17.184Z,45.98
2022-09-10T17:36:46.937Z,45.82
2022-09-10T17:39:15.821Z,45.72
2022-09-10T17:41:43.400Z,45.79
2022-09-10T17:44:11.667Z,45.86
2022-09-10T17:46:41.879Z,45.91
2022-09-10T17:49:13.369Z,45.94
2022-09-10T17:51:41.954Z,45.82
2022-09-10T17:54:09.679Z,45.82
2022-09-10T17:56:38.089Z,45.86
2022-09-10T17:59:06.413Z,45.73
2022-09-10T18:01:38.796Z,45.87
2022-09-10T18:04:09.111Z,45.77
2022-09-10T18:06:37.970Z,45.86
2022-09-10T18:09:06.083Z,45.64
2022-09-10T18:11:37.624Z,45.96
2022-09-10T18:14:05.727Z,46.21
2022-09-10T18:16:34.944Z,47.29
2022-09-10T18:19:12.843Z,47.21
2022-09-10T18:21:43.990Z,46.96
2022-09-10T18:24:17.141Z,46.65
2022-09-10T18:26:49.258Z,47.64
2022-09-10T18:29:22.698Z,48.37
2022-09-10T18:31:53.099Z,50.42
2022-09-10T18:34:27.974Z,49.58
2022-09-10T18:36:58.776Z,49.64
2022-09-10T18:39:28.496Z,50.26
2022-09-10T18:41:57.257Z,49.75
2022-09-10T18:44:27.664Z,51.02
2022-09-10T18:46:59.655Z,50.75
2022-09-10T18:49:28.264Z,50.07
2022-09-10T18:52:00.385Z,50.16
2022-09-10T18:54:28.757Z,49.65
2022-09-10T18:56:58.201Z,51.07
2022-09-10T18:59:27.257Z,51.37
2022-09-10T19:01:56.039Z,51.27
2022-09-10T19:04:26.804Z,51.36
2022-09-10T19:06:58.976Z,51.75
2022-09-10T19:09:29.328Z,51.59
2022-09-10T19:12:02.815Z,52.08
2022-09-10T19:14:35.645Z,51.10
2022-09-10T19:17:06.583Z,52.34
2022-09-10T19:19:42.352Z,52.53
2022-09-10T19:22:11.509Z,51.34
2022-09-10T19:24:56.329Z,51.26
2022-09-10T19:27:26.084Z,51.33
2022-09-10T19:29:56.872Z,51.82
2022-09-10T19:32:24.393Z,51.29
2022-09-10T19:34:54.849Z,50.95
2022-09-10T19:37:22.700Z,51.04
2022-09-10T19:39:51.267Z,52.12
2022-09-10T19:42:20.047Z,51.99
2022-09-10T19:44:49.579Z,52.43
2022-09-10T19:47:17.098Z,52.68
2022-09-10T19:49:45.057Z,52.79
2022-09-10T19:52:15.076Z,52.40
2022-09-10T19:54:43.761Z,51.68
2022-09-10T19:57:15.339Z,51.81
2022-09-10T19:59:44.240Z,52.26
2022-09-10T20:02:13.259Z,52.33
2022-09-10T20:04:40.722Z,52.51
2022-09-10T20:07:16.338Z,52.43
2022-09-10T20:09:44.451Z,52.11
2022-09-10T20:12:12.397Z,52.35
2022-09-10T20:14:40.091Z,51.91
2022-09-10T20:17:07.559Z,52.51
2022-09-10T20:19:36.225Z,52.16
2022-09-10T20:22:04.066Z,52.41
2022-09-10T20:24:34.486Z,52.14
2022-09-10T20:27:02.131Z,52.20
2022-09-10T20:29:32.758Z,51.86
2022-09-10T20:32:00.364Z,51.96
2022-09-10T20:34:28.021Z,52.21
2022-09-10T20:36:55.503Z,52.07
2022-09-10T20:39:25.403Z,51.70
2022-09-10T20:41:53.315Z,51.86
2022-09-10T20:44:23.080Z,51.99
2022-09-10T20:46:50.544Z,52.16
2022-09-10T20:49:18.382Z,52.01
2022-09-10T20:51:45.786Z,51.32
2022-09-10T20:54:16.042Z,51.86
2022-09-10T20:56:44.441Z,51.40
2022-09-10T20:59:14.607Z,51.16
2022-09-10T21:01:44.048Z,51.45
2022-09-10T21:04:13.182Z,51.42
2022-09-10T21:06:40.729Z,51.26
2022-09-10T21:09:08.140Z,51.12
2022-09-10T21:11:36.317Z,51.19
2022-09-10T21:14:06.603Z,51.28
2022-09-10T21:16:36.559Z,50.45
2022-09-10T21:19:12.972Z,50.33
2022-09-10T21:21:42.051Z,50.84
2022-09-10T21:24:15.185Z,50.55
2022-09-10T21:26:45.887Z,50.89
2022-09-10T21:29:18.724Z,50.19
2022-09-10T21:31:47.179Z,50.72
2022-09-10T21:34:14.856Z,50.67
2022-09-10T21:36:43.520Z,50.43
2022-09-10T21:39:17.124Z,50.24
2022-09-10T21:41:47.173Z,50.24
2022-09-10T21:44:25.199Z,50.11
2022-09-10T21:46:53.284Z,50.00
2022-09-10T21:49:21.044Z,49.45
2022-09-10T21:51:48.489Z,49.73
2022-09-10T21:54:21.275Z,49.97
2022-09-10T21:56:49.740Z,49.67
2022-09-10T21:59:18.277Z,49.55
2022-09-10T22:01:47.700Z,49.11
2022-09-10T22:04:21.465Z,49.17
2022-09-10T22:06:50.914Z,49.40
2022-09-10T22:09:19.797Z,49.00
2022-09-10T22:11:51.213Z,49.10
2022-09-10T22:14:23.634Z,48.65
2022-09-10T22:16:52.025Z,48.67
2022-09-10T22:19:24.809Z,48.46
2022-09-10T22:21:54.172Z,48.21
2022-09-10T22:24:22.683Z,48.01
2022-09-10T22:26:49.942Z,48.43
2022-09-10T22:29:18.983Z,48.37
2022-09-10T22:31:47.817Z,48.27
2022-09-10T22:34:16.640Z,47.83
2022-09-10T22:36:47.053Z,47.49
2022-09-10T22:39:17.880Z,47.49
2022-09-10T22:41:46.181Z,47.72
2022-09-10T22:44:13.629Z,47.45
2022-09-10T22:46:41.552Z,47.83
2022-09-10T22:49:10.046Z,46.58
2022-09-10T22:51:40.791Z,47.47
2022-09-10T22:54:10.555Z,47.49
2022-09-10T22:56:38.732Z,46.94
2022-09-10T22:59:07.180Z,46.73
2022-09-10T23:01:37.028Z,47.41
2022-09-10T23:04:06.286Z,47.18
2022-09-10T23:06:36.752Z,47.21
2022-09-10T23:09:07.947Z,46.95
2022-09-10T23:11:36.908Z,46.84
2022-09-10T23:14:10.320Z,46.39
2022-09-10T23:16:40.055Z,46.73
2022-09-10T23:19:11.484Z,46.61
2022-09-10T23:21:44.867Z,46.52
2022-09-10T23:24:16.188Z,46.83
2022-09-10T23:26:44.676Z,46.60
2022-09-10T23:29:13.234Z,46.53
2022-09-10T23:31:41.033Z,46.25
2022-09-10T23:34:12.202Z,46.63
2022-09-10T23:36:42.116Z,46.57
2022-09-10T23:39:22.133Z,46.45
2022-09-10T23:41:52.006Z,46.13
2022-09-10T23:44:20.183Z,46.70
2022-09-10T23:46:48.018Z,46.56
2022-09-10T23:49:15.895Z,46.49
2022-09-10T23:51:43.441Z,46.56
2022-09-10T23:54:11.204Z,46.29
2022-09-10T23:56:39.919Z,46.49
2022-09-10T23:59:08.163Z,46.60
